Time;durP1;ratioP1;P1;durP2;ratioP2;P2;SDS_P1;SDS_P2;PMS_P1;PMS_P2;Temp;Humidity;BMP_temperature;BMP_pressure;BME280_temperature;BME280_humidity;BME280_pressure;Samples;Min_cycle;Max_cycle;Signal;HPM_P1;HPM_P2
2021/05/30 00:02:17;;;;;;;0.75;0.20;;;19.30;51.80;;;;;;4973971;28;20038;-85
2021/05/30 00:04:43;;;;;;;0.40;0.15;;;19.30;51.80;;;;;;4974549;28;20034;-85
2021/05/30 00:07:09;;;;;;;0.73;0.45;;;19.30;51.80;;;;;;4975483;28;20035;-85
2021/05/30 00:09:38;;;;;;;0.68;0.22;;;19.30;51.80;;;;;;4990882;28;20038;-85
2021/05/30 00:12:08;;;;;;;0.28;0.10;;;19.30;51.80;;;;;;4975185;28;20045;-85
2021/05/30 00:14:34;;;;;;;0.38;0.10;;;19.20;52.10;;;;;;4973995;28;20034;-85
2021/05/30 00:17:00;;;;;;;0.85;0.28;;;19.20;51.90;;;;;;4985201;28;20023;-85
2021/05/30 00:19:26;;;;;;;1.15;0.40;;;19.20;51.90;;;;;;4976531;28;20042;-83
2021/05/30 00:21:52;;;;;;;0.47;0.00;;;19.20;52.00;;;;;;4994571;28;20034;-84
2021/05/30 00:24:18;;;;;;;0.60;0.32;;;19.20;52.00;;;;;;4994721;28;20043;-85
2021/05/30 00:26:44;;;;;;;0.63;0.30;;;19.20;52.10;;;;;;4994204;28;20037;-84
2021/05/30 00:29:10;;;;;;;0.77;0.20;;;19.20;52.20;;;;;;5010674;28;20026;-85
2021/05/30 00:31:37;;;;;;;0.28;0.10;;;19.10;52.30;;;;;;4972376;28;20035;-82
2021/05/30 00:34:03;;;;;;;0.73;0.35;;;19.10;52.40;;;;;;4958405;28;20058;-85
2021/05/30 00:36:29;;;;;;;0.63;0.32;;;19.00;52.40;;;;;;4973310;28;20027;-84
2021/05/30 00:38:55;;;;;;;5.75;0.73;;;19.00;52.50;;;;;;4973771;28;20039;-86
2021/05/30 00:41:21;;;;;;;1.23;0.40;;;19.00;52.70;;;;;;4974994;28;20376;-85
2021/05/30 00:43:52;;;;;;;1.30;0.70;;;18.90;52.80;;;;;;4973577;28;20023;-85
2021/05/30 00:46:18;;;;;;;2.17;0.80;;;18.90;52.90;;;;;;4981641;28;20403;-85
2021/05/30 00:48:45;;;;;;;1.05;0.45;;;18.80;52.90;;;;;;4979661;28;20034;-85
2021/05/30 00:51:11;;;;;;;3.03;0.43;;;18.80;53.00;;;;;;4960439;28;20035;-85
2021/05/30 00:53:37;;;;;;;0.75;0.25;;;18.80;53.10;;;;;;4977742;28;20038;-85
2021/05/30 00:56:07;;;;;;;6.05;0.52;;;18.70;53.20;;;;;;4961125;28;20034;-85
2021/05/30 00:58:33;;;;;;;1.95;0.35;;;18.70;53.30;;;;;;4973397;28;20042;-85
2021/05/30 01:01:00;;;;;;;0.68;0.20;;;18.70;53.40;;;;;;4993475;28;20031;-86
2021/05/30 01:03:26;;;;;;;1.00;0.28;;;18.60;53.50;;;;;;4989039;28;20049;-83
2021/05/30 01:05:52;;;;;;;1.73;0.52;;;18.60;53.60;;;;;;4972726;28;20042;-86
2021/05/30 01:08:26;;;;;;;5.68;0.73;;;18.50;53.70;;;;;;4957034;28;20035;-82
2021/05/30 01:10:56;;;;;;;2.45;0.63;;;18.50;53.80;;;;;;4957207;28;20050;-85
2021/05/30 01:13:22;;;;;;;1.20;0.60;;;18.50;53.90;;;;;;4973105;28;20038;-85
2021/05/30 01:15:49;;;;;;;0.80;0.30;;;18.50;53.90;;;;;;4973023;28;20416;-84
2021/05/30 01:18:22;;;;;;;1.85;0.68;;;18.50;53.90;;;;;;4972644;28;20031;-85
2021/05/30 01:20:54;;;;;;;1.50;0.75;;;18.50;54.00;;;;;;4972963;28;20030;-85
2021/05/30 01:23:20;;;;;;;0.70;0.30;;;18.50;54.00;;;;;;4972761;28;20023;-85
2021/05/30 01:25:46;;;;;;;0.65;0.20;;;18.40;53.90;;;;;;4972764;28;20038;-85
2021/05/30 01:28:13;;;;;;;0.60;0.15;;;18.40;54.00;;;;;;4973022;28;20030;-85
2021/05/30 01:30:39;;;;;;;1.27;0.40;;;18.40;54.00;;;;;;4988070;28;20401;-85
2021/05/30 01:33:05;;;;;;;0.73;0.13;;;18.40;54.10;;;;;;4972335;28;20442;-86
2021/05/30 01:35:32;;;;;;;0.95;0.20;;;18.40;54.20;;;;;;4972705;28;20038;-85
2021/05/30 01:37:58;;;;;;;0.90;0.35;;;18.30;54.10;;;;;;4972784;28;20030;-85
2021/05/30 01:40:24;;;;;;;2.22;0.65;;;18.40;54.20;;;;;;4973680;28;20027;-85
2021/05/30 01:42:52;;;;;;;1.27;0.32;;;18.30;54.20;;;;;;4989233;28;20031;-85
2021/05/30 01:45:18;;;;;;;1.08;0.43;;;18.30;54.30;;;;;;4971572;28;20092;-85
2021/05/30 01:47:45;;;;;;;4.30;0.20;;;18.30;54.30;;;;;;4972188;28;20042;-84
2021/05/30 01:50:13;;;;;;;0.57;0.20;;;18.30;54.40;;;;;;4988369;28;20031;-85
2021/05/30 01:52:39;;;;;;;1.13;0.30;;;18.30;54.40;;;;;;4972294;28;20046;-82
2021/05/30 01:55:06;;;;;;;1.25;0.20;;;18.20;54.50;;;;;;4957230;28;20046;-86
2021/05/30 01:57:38;;;;;;;2.35;0.30;;;18.20;54.60;;;;;;4972224;28;20031;-85
2021/05/30 02:00:05;;;;;;;0.60;0.40;;;18.20;54.60;;;;;;4971975;28;20034;-85
2021/05/30 02:02:31;;;;;;;0.57;0.28;;;18.20;54.70;;;;;;4975903;28;20147;-84
2021/05/30 02:04:57;;;;;;;0.40;0.10;;;18.10;54.70;;;;;;4965865;28;20039;-83
2021/05/30 02:07:23;;;;;;;5.68;0.20;;;18.10;54.80;;;;;;4969183;28;20039;-85
2021/05/30 02:09:49;;;;;;;0.73;0.17;;;18.10;54.80;;;;;;4987297;28;20030;-85
2021/05/30 02:12:16;;;;;;;1.77;0.30;;;18.10;54.80;;;;;;4970239;28;20381;-85
2021/05/30 02:14:42;;;;;;;0.43;0.15;;;18.00;54.90;;;;;;4982835;28;20047;-82
2021/05/30 02:17:08;;;;;;;1.83;0.22;;;18.10;55.00;;;;;;4985715;28;20047;-85
2021/05/30 02:19:34;;;;;;;0.30;0.20;;;18.00;54.90;;;;;;4984236;28;20035;-83
2021/05/30 02:22:00;;;;;;;0.75;0.20;;;18.00;55.00;;;;;;4971215;28;20073;-84
2021/05/30 02:24:26;;;;;;;0.30;0.10;;;18.00;55.00;;;;;;4968492;28;20049;-85
2021/05/30 02:26:52;;;;;;;0.30;0.10;;;18.10;55.10;;;;;;4983610;28;20038;-84
2021/05/30 02:29:29;;;;;;;0.28;0.00;;;18.00;55.10;;;;;;4983629;28;20423;-85
2021/05/30 02:31:55;;;;;;;0.20;0.10;;;18.00;55.20;;;;;;4968435;28;20043;-84
2021/05/30 02:34:21;;;;;;;1.48;0.45;;;17.90;55.30;;;;;;4970553;28;20046;-84
2021/05/30 02:36:47;;;;;;;3.80;0.30;;;17.90;55.40;;;;;;4985467;28;20038;-82
2021/05/30 02:39:13;;;;;;;0.32;0.10;;;17.80;55.40;;;;;;4971853;28;20503;-85
2021/05/30 02:41:39;;;;;;;0.63;0.20;;;17.80;55.50;;;;;;4972938;28;20038;-83
2021/05/30 02:44:06;;;;;;;0.80;0.35;;;17.70;55.50;;;;;;4973240;28;20480;-85
2021/05/30 02:46:32;;;;;;;0.35;0.10;;;17.70;55.50;;;;;;4979522;28;20047;-85
2021/05/30 02:48:58;;;;;;;0.55;0.20;;;17.70;55.60;;;;;;4992797;28;20038;-85
2021/05/30 02:51:24;;;;;;;0.85;0.30;;;17.70;55.70;;;;;;4992383;28;20047;-84
2021/05/30 02:53:50;;;;;;;0.90;0.20;;;17.60;55.70;;;;;;4977015;28;20400;-85
2021/05/30 02:56:16;;;;;;;0.75;0.15;;;17.60;55.90;;;;;;4977144;28;20034;-86
2021/05/30 02:58:42;;;;;;;0.73;0.20;;;17.50;55.90;;;;;;4973561;28;20396;-85
2021/05/30 03:01:08;;;;;;;1.20;0.30;;;17.50;56.10;;;;;;4974466;28;20050;-85
2021/05/30 03:03:34;;;;;;;1.02;0.10;;;17.40;56.30;;;;;;4987963;28;20038;-85
2021/05/30 03:06:00;;;;;;;0.32;0.00;;;17.30;56.30;;;;;;4972675;28;20030;-85
2021/05/30 03:08:27;;;;;;;0.13;0.00;;;17.30;56.50;;;;;;4972706;28;20039;-85
2021/05/30 03:10:53;;;;;;;0.60;0.20;;;17.30;56.60;;;;;;4955778;28;20046;-84
2021/05/30 03:13:19;;;;;;;0.45;0.08;;;17.20;56.70;;;;;;4971654;28;20047;-86
2021/05/30 03:15:45;;;;;;;1.17;0.13;;;17.10;56.80;;;;;;4978037;28;20039;-84
2021/05/30 03:18:11;;;;;;;0.75;0.43;;;17.10;56.80;;;;;;4978458;28;20035;-85
2021/05/30 03:20:37;;;;;;;1.00;0.20;;;17.10;56.90;;;;;;4976969;28;20034;-85
2021/05/30 03:23:03;;;;;;;0.70;0.30;;;17.10;57.00;;;;;;4958135;28;20038;-85
2021/05/30 03:25:29;;;;;;;0.47;0.10;;;17.10;57.00;;;;;;4957968;28;20531;-84
2021/05/30 03:27:55;;;;;;;0.50;0.20;;;17.10;57.00;;;;;;4980952;28;20034;-86
2021/05/30 03:30:21;;;;;;;0.60;0.10;;;17.10;57.00;;;;;;4961490;28;20500;-86
2021/05/30 03:32:47;;;;;;;0.75;0.20;;;17.10;57.00;;;;;;4975967;28;20392;-85
2021/05/30 03:35:14;;;;;;;0.95;0.20;;;17.10;57.00;;;;;;4975012;28;20046;-85
2021/05/30 03:37:40;;;;;;;0.35;0.10;;;17.10;57.00;;;;;;4974837;28;20057;-84
2021/05/30 03:40:18;;;;;;;0.40;0.10;;;17.10;57.00;;;;;;4975192;28;20034;-81
2021/05/30 03:42:48;;;;;;;0.65;0.40;;;17.10;57.00;;;;;;4989605;28;20031;-86
2021/05/30 03:45:15;;;;;;;0.23;0.17;;;17.10;57.00;;;;;;4989472;28;20042;-84
2021/05/30 03:47:41;;;;;;;0.30;0.10;;;17.10;57.00;;;;;;4990558;28;20030;-86
2021/05/30 03:50:08;;;;;;;0.32;0.08;;;17.00;57.00;;;;;;4990807;28;20038;-83
2021/05/30 03:52:34;;;;;;;0.85;0.20;;;17.10;57.10;;;;;;4974592;28;20046;-85
2021/05/30 03:55:00;;;;;;;0.13;0.00;;;17.00;57.10;;;;;;4974828;28;20039;-85
2021/05/30 03:57:26;;;;;;;0.57;0.30;;;17.00;57.20;;;;;;4974359;28;20046;-84
2021/05/30 03:59:52;;;;;;;0.90;0.13;;;17.00;57.20;;;;;;4975204;28;20034;-84
2021/05/30 04:02:18;;;;;;;0.73;0.25;;;17.00;57.40;;;;;;4986772;28;20476;-86
2021/05/30 04:04:44;;;;;;;0.80;0.30;;;16.90;57.40;;;;;;4975212;28;20030;-86
2021/05/30 04:07:10;;;;;;;0.68;0.10;;;16.90;57.50;;;;;;4977634;28;20031;-85
2021/05/30 04:09:36;;;;;;;0.38;0.20;;;16.80;57.50;;;;;;4995086;28;20031;-86
2021/05/30 04:12:03;;;;;;;0.57;0.20;;;16.80;57.50;;;;;;4979634;28;20037;-86
2021/05/30 04:14:29;;;;;;;1.13;0.25;;;16.80;57.60;;;;;;4979052;28;20049;-84
2021/05/30 04:16:55;;;;;;;0.98;0.43;;;16.80;57.70;;;;;;4973533;28;20027;-85
2021/05/30 04:19:21;;;;;;;0.15;0.05;;;16.70;57.70;;;;;;4958189;28;20403;-85
2021/05/30 04:21:47;;;;;;;0.35;0.10;;;16.70;57.70;;;;;;4973662;28;20027;-85
2021/05/30 04:24:13;;;;;;;0.20;0.05;;;16.70;57.70;;;;;;4973930;28;20417;-85
2021/05/30 04:26:39;;;;;;;0.52;0.30;;;16.70;57.70;;;;;;4975119;28;20030;-85
2021/05/30 04:29:05;;;;;;;0.98;0.20;;;16.80;57.70;;;;;;4974828;28;20046;-85
2021/05/30 04:31:31;;;;;;;0.52;0.10;;;16.70;57.60;;;;;;4983075;28;20031;-86
2021/05/30 04:33:57;;;;;;;0.73;0.30;;;16.80;57.70;;;;;;4978644;28;20066;-83
2021/05/30 04:36:23;;;;;;;0.60;0.30;;;16.80;57.60;;;;;;4978329;28;20031;-85
2021/05/30 04:38:50;;;;;;;0.32;0.20;;;16.80;57.60;;;;;;4979467;28;20031;-86
2021/05/30 04:41:16;;;;;;;0.90;0.43;;;16.80;57.60;;;;;;4978745;28;20391;-85
2021/05/30 04:43:42;;;;;;;0.20;0.00;;;16.80;57.60;;;;;;4975352;28;20039;-86
2021/05/30 04:46:08;;;;;;;1.00;0.22;;;16.80;57.60;;;;;;4978071;28;20415;-85
2021/05/30 04:48:34;;;;;;;1.30;0.35;;;16.80;57.70;;;;;;4975073;28;20035;-85
2021/05/30 04:51:07;;;;;;;0.68;0.25;;;16.80;57.70;;;;;;4973342;28;20031;-85
2021/05/30 04:53:36;;;;;;;0.65;0.10;;;16.70;57.70;;;;;;4974568;28;20038;-85
2021/05/30 04:56:04;;;;;;;0.70;0.40;;;16.70;57.80;;;;;;4973162;28;20031;-85
2021/05/30 04:58:30;;;;;;;0.73;0.25;;;16.70;57.90;;;;;;4974407;28;20042;-85
2021/05/30 05:00:56;;;;;;;0.73;0.22;;;16.70;57.90;;;;;;4989590;28;20047;-85
2021/05/30 05:03:22;;;;;;;0.45;0.17;;;16.60;58.60;;;;;;4954256;28;20043;-85
2021/05/30 05:05:52;;;;;;;0.40;0.10;;;16.60;58.10;;;;;;4983492;28;20046;-84
2021/05/30 05:08:19;;;;;;;0.60;0.20;;;16.60;58.20;;;;;;4973108;28;20034;-85
2021/05/30 05:10:45;;;;;;;0.88;0.28;;;16.60;58.30;;;;;;4955932;28;20061;-84
2021/05/30 05:13:11;;;;;;;0.35;0.15;;;16.60;58.40;;;;;;4973161;28;20035;-82
2021/05/30 05:15:37;;;;;;;2.17;0.43;;;16.50;58.40;;;;;;4988970;28;20420;-84
2021/05/30 05:18:30;;;;;;;0.57;0.13;;;16.50;58.40;;;;;;4989065;28;20030;-86
2021/05/30 05:20:56;;;;;;;0.55;0.30;;;16.50;58.50;;;;;;4971037;28;20042;-85
2021/05/30 05:23:23;;;;;;;2.20;0.10;;;16.60;58.50;;;;;;4973089;28;20026;-85
2021/05/30 05:25:52;;;;;;;0.30;0.10;;;16.60;58.50;;;;;;4973606;28;20038;-85
2021/05/30 05:28:18;;;;;;;0.85;0.30;;;16.70;58.50;;;;;;4973036;28;20031;-85
2021/05/30 05:30:44;;;;;;;0.10;0.00;;;16.70;58.50;;;;;;4988984;28;20047;-85
2021/05/30 05:33:10;;;;;;;0.82;0.20;;;16.70;58.50;;;;;;4972704;28;20035;-85
2021/05/30 05:35:36;;;;;;;1.40;0.32;;;16.80;58.40;;;;;;4973868;28;20041;-85
2021/05/30 05:38:02;;;;;;;0.38;0.20;;;16.80;58.20;;;;;;4972845;28;20381;-85
2021/05/30 05:40:29;;;;;;;0.45;0.20;;;17.00;58.20;;;;;;4956441;28;20054;-85
2021/05/30 05:42:55;;;;;;;0.30;0.10;;;17.00;58.00;;;;;;4989285;28;20234;-85
2021/05/30 05:45:22;;;;;;;0.30;0.15;;;17.10;57.90;;;;;;4987971;28;20042;-84
2021/05/30 05:47:52;;;;;;;0.20;0.10;;;17.20;57.80;;;;;;4988292;28;20039;-82
2021/05/30 05:50:19;;;;;;;0.45;0.20;;;17.20;57.80;;;;;;4972521;28;20038;-85
2021/05/30 05:52:46;;;;;;;2.33;0.30;;;17.30;57.70;;;;;;4972406;28;20412;-84
2021/05/30 05:55:12;;;;;;;0.15;0.10;;;17.30;57.60;;;;;;4972259;28;20480;-85
2021/05/30 05:57:39;;;;;;;0.30;0.10;;;17.40;57.50;;;;;;4953164;28;20043;-84
2021/05/30 06:00:06;;;;;;;0.43;0.00;;;17.40;57.40;;;;;;4968388;28;20037;-85
2021/05/30 06:02:33;;;;;;;0.65;0.20;;;17.50;57.40;;;;;;4988403;28;20031;-85
2021/05/30 06:04:59;;;;;;;0.47;0.10;;;17.60;57.30;;;;;;4972364;28;20023;-85
2021/05/30 06:07:25;;;;;;;0.50;0.20;;;17.70;57.20;;;;;;4972231;28;20502;-85
2021/05/30 06:09:51;;;;;;;0.10;0.00;;;17.70;57.00;;;;;;4972259;28;20042;-84
2021/05/30 06:12:18;;;;;;;0.50;0.28;;;17.80;56.90;;;;;;4972107;28;20049;-85
2021/05/30 06:14:45;;;;;;;0.22;0.00;;;17.90;56.80;;;;;;4972042;28;20046;-84
2021/05/30 06:17:12;;;;;;;0.40;0.20;;;18.00;56.70;;;;;;4972599;28;20031;-85
2021/05/30 06:19:38;;;;;;;0.00;0.00;;;18.00;56.50;;;;;;4973477;28;20038;-83
2021/05/30 06:22:04;;;;;;;0.20;0.03;;;18.10;56.40;;;;;;4973777;28;20031;-84
2021/05/30 06:24:31;;;;;;;0.43;0.20;;;18.10;56.30;;;;;;4971647;28;20404;-85
2021/05/30 06:26:57;;;;;;;0.63;0.38;;;18.10;56.30;;;;;;4971852;28;20038;-84
2021/05/30 06:29:23;;;;;;;0.75;0.20;;;18.10;56.30;;;;;;4954986;28;20061;-84
2021/05/30 06:31:49;;;;;;;0.95;0.30;;;18.10;56.20;;;;;;4981817;28;20038;-84
2021/05/30 06:34:16;;;;;;;0.10;0.00;;;18.20;56.10;;;;;;4974401;28;20054;-83
2021/05/30 06:36:45;;;;;;;0.40;0.13;;;18.20;56.00;;;;;;5009171;28;20031;-85
2021/05/30 06:39:11;;;;;;;0.38;0.17;;;18.20;55.90;;;;;;5007474;28;20035;-85
2021/05/30 06:41:37;;;;;;;0.70;0.30;;;18.20;55.80;;;;;;4976163;28;20039;-83
2021/05/30 06:44:04;;;;;;;0.20;0.10;;;18.30;55.70;;;;;;4958224;28;20050;-83
2021/05/30 06:46:30;;;;;;;0.25;0.13;;;18.40;55.50;;;;;;4955662;28;20058;-84
2021/05/30 06:48:57;;;;;;;1.55;0.30;;;18.40;55.40;;;;;;4988434;28;20049;-85
2021/05/30 06:51:26;;;;;;;1.08;0.10;;;18.50;55.40;;;;;;4971811;28;20496;-85
2021/05/30 06:53:52;;;;;;;0.22;0.13;;;18.50;55.20;;;;;;4987094;28;20050;-85
2021/05/30 06:56:19;;;;;;;0.22;0.10;;;18.60;55.10;;;;;;4987648;28;20373;-83
2021/05/30 06:58:45;;;;;;;0.77;0.10;;;18.60;55.00;;;;;;4973071;28;20041;-85
2021/05/30 07:01:12;;;;;;;0.55;0.17;;;18.70;54.90;;;;;;4983070;28;20047;-85
2021/05/30 07:03:38;;;;;;;1.35;0.93;;;18.90;54.70;;;;;;5012365;28;20357;-84
2021/05/30 07:06:05;;;;;;;0.95;0.08;;;19.00;54.50;;;;;;5012196;28;20043;-85
2021/05/30 07:08:31;;;;;;;0.57;0.10;;;19.10;54.40;;;;;;5011630;28;20034;-85
2021/05/30 07:10:57;;;;;;;0.17;0.08;;;19.30;54.20;;;;;;4961975;28;20045;-86
2021/05/30 07:13:23;;;;;;;0.00;0.00;;;19.40;54.10;;;;;;4976789;28;20036;-84
2021/05/30 07:15:51;;;;;;;0.05;0.00;;;19.50;53.90;;;;;;4980826;28;20030;-84
2021/05/30 07:18:21;;;;;;;0.20;0.05;;;19.50;53.70;;;;;;4975137;28;20034;-86
2021/05/30 07:20:47;;;;;;;0.55;0.13;;;19.50;53.60;;;;;;4958789;28;20038;-85
2021/05/30 07:23:14;;;;;;;0.55;0.20;;;19.60;53.60;;;;;;4959188;28;20045;-86
2021/05/30 07:25:40;;;;;;;1.00;0.28;;;19.50;53.50;;;;;;4975047;28;20392;-85
2021/05/30 07:28:06;;;;;;;1.08;0.20;;;19.50;53.50;;;;;;4976701;28;20023;-83
2021/05/30 07:30:33;;;;;;;0.10;0.10;;;19.60;53.50;;;;;;4990958;28;20476;-85
2021/05/30 07:33:01;;;;;;;0.32;0.10;;;19.70;53.50;;;;;;4974789;28;20043;-85
2021/05/30 07:35:27;;;;;;;1.25;0.22;;;19.80;53.30;;;;;;4975510;28;20038;-85
2021/05/30 07:37:54;;;;;;;0.25;0.00;;;19.90;53.10;;;;;;4976410;28;20380;-85
2021/05/30 07:40:20;;;;;;;0.20;0.10;;;20.00;52.80;;;;;;4958765;28;20361;-86
2021/05/30 07:42:46;;;;;;;0.00;0.00;;;20.10;52.70;;;;;;4976262;28;20041;-84
2021/05/30 07:45:13;;;;;;;0.47;0.08;;;20.20;52.60;;;;;;4958573;28;20484;-86
2021/05/30 07:47:40;;;;;;;0.10;0.00;;;20.20;52.40;;;;;;4985522;28;20066;-86
2021/05/30 07:50:06;;;;;;;0.13;0.10;;;20.40;52.20;;;;;;4978154;28;20037;-86
2021/05/30 07:52:32;;;;;;;0.20;0.17;;;20.50;51.90;;;;;;4974777;28;20373;-83
2021/05/30 07:54:59;;;;;;;1.95;0.40;;;20.60;51.80;;;;;;5011948;28;20042;-86
2021/05/30 07:57:25;;;;;;;0.13;0.00;;;20.70;51.70;;;;;;5011252;28;20384;-85
2021/05/30 07:59:51;;;;;;;0.32;0.17;;;20.80;51.50;;;;;;4978777;28;20046;-85
2021/05/30 08:02:18;;;;;;;0.90;0.28;;;21.10;51.20;;;;;;4958068;28;20050;-86
2021/05/30 08:04:44;;;;;;;0.30;0.00;;;21.30;50.90;;;;;;4974234;28;20034;-85
2021/05/30 08:07:10;;;;;;;0.57;0.10;;;21.60;50.50;;;;;;4975678;28;20023;-84
2021/05/30 08:09:36;;;;;;;0.45;0.10;;;21.80;50.20;;;;;;4990747;28;20038;-86
2021/05/30 08:12:03;;;;;;;0.08;0.03;;;22.10;49.90;;;;;;4989081;28;20030;-86
2021/05/30 08:14:29;;;;;;;0.95;0.32;;;22.40;49.30;;;;;;4973731;28;20047;-85
2021/05/30 08:16:57;;;;;;;0.38;0.08;;;22.50;49.00;;;;;;4984517;28;20035;-86
2021/05/30 08:19:24;;;;;;;0.47;0.10;;;22.60;48.80;;;;;;4975318;28;20034;-86
2021/05/30 08:21:50;;;;;;;0.00;0.00;;;22.70;48.60;;;;;;5011614;28;20465;-86
2021/05/30 08:24:16;;;;;;;0.10;0.00;;;22.90;48.50;;;;;;4979403;28;20043;-84
2021/05/30 08:26:42;;;;;;;0.30;0.10;;;23.00;48.20;;;;;;4979292;28;20031;-86
2021/05/30 08:29:09;;;;;;;0.10;0.00;;;23.10;48.00;;;;;;4978173;28;20031;-85
2021/05/30 08:31:35;;;;;;;0.17;0.00;;;23.20;47.60;;;;;;4973343;28;20039;-85
2021/05/30 08:34:01;;;;;;;0.10;0.10;;;23.30;47.40;;;;;;4990114;28;20045;-85
2021/05/30 08:36:27;;;;;;;0.00;0.00;;;23.30;47.20;;;;;;4974771;28;20472;-87
2021/05/30 08:38:53;;;;;;;0.17;0.00;;;23.30;47.00;;;;;;4973817;28;20042;-86
2021/05/30 08:41:20;;;;;;;0.88;0.20;;;23.40;47.00;;;;;;4973615;28;20034;-86
2021/05/30 08:43:46;;;;;;;0.38;0.05;;;23.40;47.00;;;;;;4973739;28;20443;-86
2021/05/30 08:46:12;;;;;;;0.10;0.00;;;23.40;46.90;;;;;;4981744;28;20046;-85
2021/05/30 08:48:38;;;;;;;0.22;0.10;;;23.40;46.80;;;;;;4974676;28;20047;-86
2021/05/30 08:51:05;;;;;;;0.00;0.00;;;23.40;46.60;;;;;;4977588;28;20039;-86
2021/05/30 08:53:37;;;;;;;0.75;0.10;;;23.30;46.50;;;;;;4993527;28;20038;-85
2021/05/30 08:56:04;;;;;;;0.10;0.00;;;23.30;46.50;;;;;;4976619;28;20030;-86
2021/05/30 08:58:47;;;;;;;0.30;0.10;;;23.30;46.50;;;;;;4974014;28;20034;-85
2021/05/30 09:01:14;;;;;;;0.00;0.00;;;23.40;46.30;;;;;;5001758;28;20054;-87
2021/05/30 09:03:50;;;;;;;0.08;0.00;;;23.50;46.10;;;;;;4993739;28;20085;-86
2021/05/30 09:06:17;;;;;;;0.45;0.20;;;23.60;46.00;;;;;;5010036;28;20042;-86
2021/05/30 09:08:43;;;;;;;0.38;0.10;;;23.60;45.70;;;;;;4978693;28;20030;-86
2021/05/30 09:11:09;;;;;;;0.60;0.20;;;23.70;45.50;;;;;;4961279;28;20053;-85
2021/05/30 09:13:53;;;;;;;0.15;0.10;;;23.70;45.30;;;;;;4973133;28;20034;-86
2021/05/30 09:16:23;;;;;;;0.55;0.25;;;23.80;45.30;;;;;;5018963;28;20404;-87
2021/05/30 09:18:49;;;;;;;0.28;0.00;;;23.80;45.10;;;;;;4993096;28;20357;-85
2021/05/30 09:21:16;;;;;;;0.35;0.15;;;23.90;45.00;;;;;;5009703;28;20039;-86
2021/05/30 09:23:43;;;;;;;0.68;0.13;;;23.80;44.80;;;;;;5009198;28;20388;-85
2021/05/30 09:26:19;;;;;;;3.30;0.20;;;23.80;44.80;;;;;;4978058;28;20495;-86
2021/05/30 09:29:08;;;;;;;0.10;0.00;;;24.00;44.60;;;;;;4959554;28;20022;-86
2021/05/30 09:31:35;;;;;;;0.00;0.00;;;24.10;44.30;;;;;;4972162;28;20046;-86
2021/05/30 09:34:27;;;;;;;0.50;0.10;;;24.30;44.10;;;;;;4974318;28;20035;-85
2021/05/30 09:36:53;;;;;;;0.00;0.00;;;24.30;43.70;;;;;;4988108;28;20038;-85
2021/05/30 09:39:43;;;;;;;0.30;0.13;;;24.30;43.70;;;;;;4988836;28;20030;-86
2021/05/30 09:42:35;;;;;;;0.28;0.10;;;24.40;43.60;;;;;;4988674;28;20481;-85
2021/05/30 09:45:09;;;;;;;0.10;0.00;;;24.50;43.30;;;;;;4987632;28;20051;-83
2021/05/30 09:47:40;;;;;;;0.28;0.10;;;24.60;42.90;;;;;;5003873;28;20154;-87
2021/05/30 09:50:08;;;;;;;0.50;0.00;;;24.60;42.40;;;;;;4972715;28;20030;-86
2021/05/30 09:52:44;;;;;;;0.10;0.00;;;24.60;42.00;;;;;;4973828;28;20027;-86
2021/05/30 09:55:20;;;;;;;0.15;0.05;;;24.60;41.80;;;;;;4969375;28;20050;-84
2021/05/30 09:58:15;;;;;;;0.30;0.00;;;24.70;41.60;;;;;;5005226;28;20388;-85
2021/05/30 10:00:43;;;;;;;0.00;0.00;;;24.70;41.30;;;;;;4987269;28;20038;-86
2021/05/30 10:03:09;;;;;;;0.00;0.00;;;24.80;40.70;;;;;;4973445;28;20050;-87
2021/05/30 10:05:36;;;;;;;0.03;0.00;;;24.80;40.30;;;;;;4956373;28;20039;-87
2021/05/30 10:08:03;;;;;;;0.45;0.22;;;24.70;40.10;;;;;;4972379;28;20026;-87
2021/05/30 10:10:29;;;;;;;0.00;0.00;;;24.60;40.20;;;;;;4972201;28;20037;-84
2021/05/30 10:12:55;;;;;;;0.57;0.10;;;24.60;40.10;;;;;;4988817;28;20042;-86
2021/05/30 10:15:22;;;;;;;0.10;0.00;;;24.60;39.80;;;;;;4975015;28;20046;-85
2021/05/30 10:17:48;;;;;;;0.10;0.00;;;24.70;39.70;;;;;;4982243;28;20027;-87
2021/05/30 10:20:19;;;;;;;0.03;0.00;;;24.80;39.20;;;;;;4976413;28;20494;-87
2021/05/30 10:22:48;;;;;;;0.00;0.00;;;24.90;38.90;;;;;;4972970;28;20388;-86
2021/05/30 10:25:22;;;;;;;0.10;0.00;;;24.90;38.80;;;;;;4974856;28;20042;-86
2021/05/30 10:28:06;;;;;;;0.30;0.15;;;25.00;38.80;;;;;;4989950;28;20035;-86
2021/05/30 10:30:32;;;;;;;1.50;0.40;;;25.20;38.80;;;;;;4991618;28;20046;-87
2021/05/30 10:33:10;;;;;;;1.05;0.20;;;25.20;38.70;;;;;;4987942;28;20027;-86
2021/05/30 10:35:36;;;;;;;0.93;0.17;;;25.40;38.40;;;;;;4974101;28;20042;-87
2021/05/30 10:38:02;;;;;;;0.30;0.03;;;25.50;38.00;;;;;;4976176;28;20023;-87
2021/05/30 10:40:32;;;;;;;0.10;0.10;;;25.60;37.70;;;;;;4975933;28;20058;-85
2021/05/30 10:43:26;;;;;;;0.52;0.00;;;25.70;37.20;;;;;;4976500;28;20023;-85
2021/05/30 10:45:52;;;;;;;0.05;0.00;;;25.80;36.90;;;;;;4995153;28;20503;-87
2021/05/30 10:48:19;;;;;;;0.38;0.10;;;25.80;36.80;;;;;;4981819;28;20119;-87
2021/05/30 10:54:05;;;;;;;0.73;0.10;;;25.80;36.60;;;;;;4982591;28;20053;-86
2021/05/30 10:56:34;;;;;;;0.08;0.00;;;25.90;35.80;;;;;;4922272;29;20047;-86
2021/05/30 10:59:03;;;;;;;0.10;0.00;;;25.90;35.40;;;;;;4939247;29;20078;-87
2021/05/30 11:01:39;;;;;;;0.00;0.00;;;25.90;35.40;;;;;;4954718;28;20054;-85
2021/05/30 11:06:50;;;;;;;0.40;0.17;;;25.90;34.90;;;;;;4960253;28;20046;-87
2021/05/30 11:09:16;;;;;;;0.08;0.00;;;25.90;34.60;;;;;;4966810;28;20028;-87
2021/05/30 11:11:43;;;;;;;0.25;0.00;;;25.90;34.50;;;;;;4950799;29;20047;-86
2021/05/30 11:14:13;;;;;;;0.20;0.00;;;25.90;34.90;;;;;;4935648;29;20405;-85
2021/05/30 11:16:43;;;;;;;0.30;0.00;;;25.90;34.30;;;;;;4970372;28;20087;-85
2021/05/30 11:19:10;;;;;;;0.20;0.00;;;25.90;34.10;;;;;;4919956;29;20036;-85
2021/05/30 11:21:46;;;;;;;0.50;0.00;;;25.90;34.00;;;;;;4950488;29;20568;-85
2021/05/30 11:24:17;;;;;;;0.00;0.00;;;25.80;33.60;;;;;;4939595;29;20039;-86
2021/05/30 11:27:03;;;;;;;;;;;25.80;33.60;;;;;;4939206;29;20031;-87
2021/05/30 11:29:29;;;;;;;0.00;0.00;;;25.80;33.20;;;;;;4937757;29;19917;-86
2021/05/30 11:31:55;;;;;;;0.20;0.00;;;25.80;32.60;;;;;;4970368;28;20407;-86
2021/05/30 11:34:21;;;;;;;0.10;0.00;;;25.70;32.40;;;;;;4975079;28;20032;-87
2021/05/30 11:36:48;;;;;;;0.20;0.00;;;25.60;32.40;;;;;;4991461;28;20039;-85
2021/05/30 11:39:17;;;;;;;0.20;0.00;;;25.50;32.40;;;;;;4991153;28;20023;-86
2021/05/30 11:41:56;;;;;;;0.00;0.00;;;25.50;32.20;;;;;;4974343;28;20361;-87
2021/05/30 11:44:23;;;;;;;0.20;0.03;;;25.50;32.20;;;;;;4974742;28;20383;-87
2021/05/30 11:46:54;;;;;;;0.00;0.00;;;25.50;32.10;;;;;;4984228;28;20039;-85
2021/05/30 11:49:25;;;;;;;0.00;0.00;;;25.50;32.30;;;;;;4977167;28;20031;-86
2021/05/30 11:51:58;;;;;;;;;;;25.60;32.20;;;;;;5010689;28;20031;-86
2021/05/30 11:54:24;;;;;;;0.00;0.00;;;25.70;32.00;;;;;;5011544;28;20282;-86
2021/05/30 11:56:52;;;;;;;0.00;0.00;;;25.70;31.70;;;;;;5010826;28;20035;-86
2021/05/30 11:59:29;;;;;;;0.00;0.00;;;25.70;31.80;;;;;;4994944;28;20037;-85
2021/05/30 12:01:55;;;;;;;0.08;0.00;;;25.60;31.90;;;;;;4974095;28;20054;-86
2021/05/30 12:04:21;;;;;;;0.93;0.00;;;25.60;32.00;;;;;;4974676;28;20384;-87
2021/05/30 12:06:48;;;;;;;0.10;0.00;;;25.70;32.10;;;;;;4975954;28;20384;-85
2021/05/30 12:09:14;;;;;;;0.05;0.00;;;25.70;32.20;;;;;;4974466;28;20046;-87
2021/05/30 12:11:40;;;;;;;0.00;0.00;;;25.80;32.20;;;;;;4975068;28;20034;-86
2021/05/30 12:14:07;;;;;;;0.10;0.00;;;25.80;31.60;;;;;;4974190;28;20038;-86
2021/05/30 12:16:33;;;;;;;0.30;0.10;;;25.70;31.60;;;;;;4982298;28;20054;-86
2021/05/30 12:19:00;;;;;;;0.00;0.00;;;25.70;31.60;;;;;;5011623;28;20050;-86
2021/05/30 12:21:37;;;;;;;0.20;0.10;;;25.70;31.60;;;;;;5010667;28;20038;-86
2021/05/30 12:24:04;;;;;;;0.10;0.00;;;25.60;31.70;;;;;;4993244;28;20023;-86
2021/05/30 12:26:30;;;;;;;0.00;0.00;;;25.60;31.70;;;;;;5010302;28;20523;-86
2021/05/30 12:28:56;;;;;;;0.00;0.00;;;25.60;31.70;;;;;;4977501;28;20027;-85
2021/05/30 12:31:23;;;;;;;0.00;0.00;;;25.70;31.80;;;;;;4976378;28;20495;-84
2021/05/30 12:33:53;;;;;;;0.10;0.00;;;25.80;31.80;;;;;;4975438;28;20372;-87
2021/05/30 12:36:47;;;;;;;0.00;0.00;;;25.80;31.70;;;;;;4973708;28;20043;-87
2021/05/30 12:39:24;;;;;;;0.10;0.10;;;25.80;31.90;;;;;;4973736;28;20476;-86
2021/05/30 12:41:57;;;;;;;0.25;0.00;;;25.90;32.00;;;;;;4973328;28;20031;-87
2021/05/30 12:44:30;;;;;;;0.30;0.00;;;26.00;31.90;;;;;;4957996;28;20042;-87
2021/05/30 12:47:08;;;;;;;0.10;0.00;;;26.10;31.80;;;;;;4969456;28;20045;-85
2021/05/30 12:49:35;;;;;;;0.13;0.08;;;26.20;31.80;;;;;;4973888;28;20039;-88
2021/05/30 12:52:05;;;;;;;0.25;0.05;;;26.30;31.60;;;;;;4994497;28;20027;-86
2021/05/30 12:54:36;;;;;;;0.00;0.00;;;26.30;31.60;;;;;;4993134;28;20057;-87
2021/05/30 12:57:02;;;;;;;0.00;0.00;;;26.40;31.40;;;;;;5008948;28;20043;-88
2021/05/30 12:59:31;;;;;;;5.28;0.80;;;26.40;31.40;;;;;;5009741;28;20364;-86